Moss Hill, Texas
Current Conditions -  °F | °C
As of 5:55 PM on Saturday 22 Nov 2014 (Local Time) from KBMT Reporting Station
Light Rain Light Rain  
Wind Chill: 65°   Ceiling: 700
Heat Index: 65°   Visibility: 10mi
Dew Point: 64°   Wind: 10mph
Humidity: 94%   Direction: 110°ESE
Pressure: 29.86"   Gusts: 17mph
Location:  30.0821°N, 94.7401°W
Report Text: KBMT 222355Z AUTO 11009G15KT 10SM -RA OVC007 19/18 A2986 RMK AO2 LTG DSNT N AND W T01850175 10205 20185
Loading
Personal Weather Stations






























Interactive Weather Map New forecast layout! Learn more

10-Day Weather Forecast

Advertisements
Track Severe Weather on mobile